createdAt,value
2022-09-21T00:00:12.223Z,100.00
2022-09-21T00:05:15.765Z,100.00
2022-09-21T00:10:20.255Z,100.00
2022-09-21T00:15:25.255Z,100.00
2022-09-21T00:20:29.208Z,100.00
2022-09-21T00:25:32.616Z,100.00
2022-09-21T00:30:39.192Z,100.00
2022-09-21T00:35:42.637Z,100.00
2022-09-21T00:40:46.099Z,100.00
2022-09-21T00:45:56.224Z,100.00
2022-09-21T00:51:04.271Z,100.00
2022-09-21T00:56:10.553Z,100.00
2022-09-21T01:01:16.559Z,100.00
2022-09-21T01:06:22.430Z,100.00
2022-09-21T01:11:40.268Z,100.00
2022-09-21T01:16:54.106Z,100.00
2022-09-21T01:22:07.796Z,100.00
2022-09-21T01:27:36.673Z,100.00
2022-09-21T01:32:46.089Z,100.00
2022-09-21T01:37:55.534Z,100.00
2022-09-21T01:43:01.971Z,100.00
2022-09-21T01:48:07.441Z,100.00
2022-09-21T01:53:19.411Z,100.00
2022-09-21T01:58:29.980Z,100.00
2022-09-21T02:03:40.301Z,100.00
2022-09-21T02:08:44.007Z,100.00
2022-09-21T02:13:52.292Z,100.00
2022-09-21T02:19:11.278Z,100.00
2022-09-21T02:24:23.067Z,100.00
2022-09-21T02:29:33.485Z,100.00
2022-09-21T02:34:46.644Z,100.00
2022-09-21T02:40:00.471Z,100.00
2022-09-21T02:45:08.981Z,100.00
2022-09-21T02:50:21.362Z,100.00
2022-09-21T02:55:26.540Z,100.00
2022-09-21T03:00:31.144Z,100.00
2022-09-21T03:05:36.199Z,100.00
2022-09-21T03:10:40.905Z,100.00
2022-09-21T03:15:45.618Z,100.00
2022-09-21T03:20:50.586Z,100.00
2022-09-21T03:25:54.723Z,100.00
2022-09-21T03:30:58.566Z,100.00
2022-09-21T03:36:04.296Z,100.00
2022-09-21T03:41:08.240Z,100.00
2022-09-21T03:46:11.944Z,100.00
2022-09-21T03:51:16.796Z,100.00
2022-09-21T03:56:20.347Z,100.00
2022-09-21T04:01:24.310Z,100.00
2022-09-21T04:06:30.174Z,100.00
2022-09-21T04:11:34.758Z,100.00
2022-09-21T04:16:38.907Z,100.00
2022-09-21T04:21:44.748Z,100.00
2022-09-21T04:26:49.411Z,100.00
2022-09-21T04:31:52.936Z,100.00
2022-09-21T04:36:58.608Z,100.00
2022-09-21T04:42:03.475Z,100.00
2022-09-21T04:47:07.263Z,100.00
2022-09-21T04:52:16.998Z,100.00
2022-09-21T04:57:22.839Z,100.00
2022-09-21T05:02:26.621Z,100.00
2022-09-21T05:07:31.900Z,100.00
2022-09-21T05:12:40.700Z,100.00
2022-09-21T05:17:44.676Z,100.00
2022-09-21T05:22:49.769Z,100.00
2022-09-21T05:27:53.526Z,100.00
2022-09-21T05:33:03.879Z,100.00
2022-09-21T05:38:15.101Z,100.00
2022-09-21T05:43:19.405Z,100.00
2022-09-21T05:48:27.496Z,100.00
2022-09-21T05:54:05.155Z,100.00
2022-09-21T05:59:26.372Z,100.00
2022-09-21T06:04:30.733Z,100.00
2022-09-21T06:09:37.973Z,100.00
2022-09-21T06:14:44.896Z,100.00
2022-09-21T06:19:48.450Z,100.00
2022-09-21T06:24:53.745Z,100.00
2022-09-21T06:29:57.427Z,100.00
2022-09-21T06:35:01.098Z,100.00
2022-09-21T06:40:07.501Z,100.00
2022-09-21T06:45:11.519Z,100.00
2022-09-21T06:50:15.208Z,100.00
2022-09-21T06:55:20.186Z,100.00
2022-09-21T07:00:23.678Z,100.00
2022-09-21T07:05:28.012Z,100.00
2022-09-21T07:10:32.816Z,100.00
2022-09-21T07:15:36.619Z,100.00
2022-09-21T07:20:41.084Z,100.00
2022-09-21T07:25:48.952Z,100.00
2022-09-21T07:30:52.334Z,100.00
2022-09-21T07:35:57.405Z,100.00
2022-09-21T07:41:04.203Z,100.00
2022-09-21T07:46:08.158Z,100.00
2022-09-21T07:51:13.295Z,100.00
2022-09-21T07:56:20.082Z,100.00
2022-09-21T08:01:24.362Z,100.00
2022-09-21T08:06:30.444Z,100.00
2022-09-21T08:11:36.122Z,100.00
2022-09-21T08:16:40.150Z,100.00
2022-09-21T08:21:44.065Z,100.00
2022-09-21T08:26:51.641Z,100.00
2022-09-21T08:31:55.200Z,100.00
2022-09-21T08:36:58.957Z,100.00
2022-09-21T08:42:14.623Z,100.00
2022-09-21T08:47:24.046Z,95.29
2022-09-21T08:52:27.799Z,97.88
2022-09-21T08:57:35.233Z,94.23
2022-09-21T09:03:13.869Z,93.19
2022-09-21T09:08:38.409Z,90.46
2022-09-21T09:14:02.975Z,90.11
2022-09-21T09:19:18.811Z,87.10
2022-09-21T09:24:32.910Z,84.54
2022-09-21T09:29:45.267Z,85.33
2022-09-21T09:34:56.371Z,84.26
2022-09-21T09:40:02.092Z,81.43
2022-09-21T09:45:34.363Z,85.00
2022-09-21T09:50:40.606Z,86.88
2022-09-21T09:55:47.942Z,85.51
2022-09-21T10:00:57.684Z,88.43
2022-09-21T10:06:02.543Z,90.34
2022-09-21T10:11:06.903Z,92.54
2022-09-21T10:16:16.604Z,90.97
2022-09-21T10:21:23.202Z,91.69
2022-09-21T10:26:32.707Z,88.70
2022-09-21T10:31:37.649Z,90.50
2022-09-21T10:36:41.735Z,85.15
2022-09-21T10:41:50.278Z,84.63
2022-09-21T10:52:04.462Z,80.83
2022-09-21T10:57:11.283Z,79.52
2022-09-21T11:02:36.531Z,79.49
2022-09-21T11:07:46.029Z,72.58
2022-09-21T11:13:12.715Z,67.97
2022-09-21T11:18:23.338Z,73.63
2022-09-21T11:23:40.412Z,62.41
2022-09-21T11:28:50.964Z,63.83
2022-09-21T11:34:13.028Z,61.41
2022-09-21T11:39:25.683Z,62.38
2022-09-21T11:44:55.578Z,57.71
2022-09-21T11:50:33.651Z,55.02
2022-09-21T11:56:07.872Z,57.09
2022-09-21T12:01:26.078Z,54.22
2022-09-21T12:06:42.247Z,53.79
2022-09-21T12:11:55.501Z,53.13
2022-09-21T12:17:06.045Z,54.55
2022-09-21T12:22:17.676Z,57.99
2022-09-21T12:27:28.815Z,54.94
2022-09-21T12:32:47.481Z,54.27
2022-09-21T12:37:57.703Z,56.04
2022-09-21T12:43:09.611Z,59.63
2022-09-21T12:48:31.038Z,59.19
2022-09-21T12:53:41.343Z,56.09
2022-09-21T12:58:55.562Z,60.07
2022-09-21T13:04:29.938Z,58.91
2022-09-21T13:09:40.146Z,61.02
2022-09-21T13:14:48.226Z,58.75
2022-09-21T13:20:02.363Z,51.39
2022-09-21T13:25:19.714Z,53.63
2022-09-21T13:30:33.287Z,53.24
2022-09-21T13:36:02.384Z,55.14
2022-09-21T13:41:51.921Z,53.21
2022-09-21T13:46:56.070Z,53.08
2022-09-21T13:52:03.312Z,50.64
2022-09-21T13:57:19.420Z,51.39
2022-09-21T14:02:32.619Z,53.00
2022-09-21T14:07:36.856Z,53.71
2022-09-21T14:12:45.176Z,53.06
2022-09-21T14:18:18.155Z,53.14
2022-09-21T14:23:31.048Z,54.56
2022-09-21T14:28:40.366Z,55.64
2022-09-21T14:33:48.311Z,56.93
2022-09-21T14:38:58.463Z,56.38
2022-09-21T14:44:04.548Z,66.95
2022-09-21T14:49:28.047Z,73.95
2022-09-21T14:54:43.737Z,74.79
2022-09-21T15:00:02.898Z,74.00
2022-09-21T15:05:17.062Z,78.81
2022-09-21T15:10:43.573Z,79.76
2022-09-21T15:16:01.354Z,76.30
2022-09-21T15:21:05.760Z,75.69
2022-09-21T15:26:11.546Z,79.35
2022-09-21T15:31:17.236Z,84.73
2022-09-21T15:36:27.162Z,82.25
2022-09-21T15:41:43.444Z,60.36
2022-09-21T15:47:01.275Z,78.59
2022-09-21T15:52:12.988Z,74.49
2022-09-21T15:57:39.053Z,67.75
2022-09-21T16:02:56.237Z,78.17
2022-09-21T16:08:12.309Z,80.68
2022-09-21T16:13:38.537Z,89.55
2022-09-21T16:18:49.253Z,91.59
2022-09-21T16:23:56.169Z,92.12
2022-09-21T16:29:19.925Z,96.87
2022-09-21T16:34:37.029Z,97.52
2022-09-21T16:39:42.238Z,100.00
2022-09-21T16:44:46.016Z,100.00
2022-09-21T16:49:51.741Z,100.00
2022-09-21T16:54:56.564Z,100.00
2022-09-21T17:00:00.229Z,100.00
2022-09-21T17:05:05.543Z,100.00
2022-09-21T17:10:14.083Z,100.00
2022-09-21T17:15:17.656Z,100.00
2022-09-21T17:20:32.380Z,100.00
2022-09-21T17:25:37.189Z,100.00
2022-09-21T17:30:43.204Z,100.00
2022-09-21T17:35:50.867Z,100.00
2022-09-21T17:40:56.759Z,100.00
2022-09-21T17:46:08.400Z,100.00
2022-09-21T17:51:34.301Z,100.00
2022-09-21T17:56:48.168Z,100.00
2022-09-21T18:01:52.762Z,100.00
2022-09-21T18:07:00.616Z,100.00
2022-09-21T18:12:37.430Z,100.00
2022-09-21T18:17:58.826Z,100.00
2022-09-21T18:23:18.052Z,100.00
2022-09-21T18:28:40.294Z,100.00
2022-09-21T18:33:52.428Z,100.00
2022-09-21T18:39:10.722Z,100.00
2022-09-21T18:44:21.353Z,100.00
2022-09-21T18:49:56.365Z,100.00
2022-09-21T18:55:02.203Z,100.00
2022-09-21T19:00:08.413Z,100.00
2022-09-21T19:05:13.764Z,100.00
2022-09-21T19:10:26.812Z,100.00
2022-09-21T19:15:59.745Z,100.00
2022-09-21T19:21:15.098Z,100.00
2022-09-21T19:26:28.478Z,100.00
2022-09-21T19:31:33.106Z,100.00
2022-09-21T19:36:36.690Z,100.00
2022-09-21T19:41:54.550Z,100.00
2022-09-21T19:47:06.675Z,100.00
2022-09-21T19:52:14.765Z,100.00
2022-09-21T19:57:39.530Z,100.00
2022-09-21T20:02:54.095Z,100.00
2022-09-21T20:08:04.988Z,100.00
2022-09-21T20:13:21.947Z,100.00
2022-09-21T20:18:30.677Z,100.00
2022-09-21T20:23:36.162Z,100.00
2022-09-21T20:28:41.670Z,100.00
2022-09-21T20:33:45.178Z,100.00
2022-09-21T20:38:48.855Z,100.00
2022-09-21T20:43:55.392Z,100.00
2022-09-21T20:49:04.611Z,100.00
2022-09-21T20:54:08.517Z,100.00
2022-09-21T20:59:13.471Z,100.00
2022-09-21T21:04:16.942Z,100.00
2022-09-21T21:09:20.853Z,100.00
2022-09-21T21:14:27.970Z,100.00
2022-09-21T21:19:32.840Z,100.00
2022-09-21T21:24:42.097Z,100.00
2022-09-21T21:29:50.296Z,100.00
2022-09-21T21:34:54.705Z,100.00
2022-09-21T21:39:58.518Z,100.00
2022-09-21T21:45:03.301Z,100.00
2022-09-21T21:50:07.632Z,100.00
2022-09-21T21:55:11.181Z,100.00
2022-09-21T22:00:17.554Z,100.00
2022-09-21T22:05:21.099Z,100.00
2022-09-21T22:10:25.363Z,100.00
2022-09-21T22:15:31.792Z,100.00
2022-09-21T22:20:35.330Z,100.00
2022-09-21T22:25:39.373Z,100.00
2022-09-21T22:30:50.033Z,100.00
2022-09-21T22:35:53.489Z,100.00
2022-09-21T22:40:56.970Z,100.00
2022-09-21T22:46:02.595Z,100.00
2022-09-21T22:51:06.654Z,100.00
2022-09-21T22:56:11.802Z,100.00
2022-09-21T23:01:19.846Z,100.00
2022-09-21T23:06:26.484Z,100.00
2022-09-21T23:11:33.143Z,100.00
2022-09-21T23:16:38.156Z,100.00
2022-09-21T23:21:42.035Z,100.00
2022-09-21T23:26:45.699Z,100.00
2022-09-21T23:31:50.623Z,100.00
2022-09-21T23:36:54.479Z,100.00
2022-09-21T23:41:57.907Z,100.00
2022-09-21T23:47:02.815Z,100.00
2022-09-21T23:52:06.476Z,100.00
2022-09-21T23:57:09.753Z,100.00
